Utopia Creek, Alaska
Current Conditions -  °F | °C
As of 10:55 PM on Thursday 23 Oct 2014 (Local Time) from PAIM Reporting Station
Overcast Overcast  
Wind Chill: 21°   Ceiling: 1200
Heat Index: 21°   Visibility: 10mi
Dew Point: 18°   Wind: 0mph
Humidity: 89%   Direction: NA
Pressure: 29.71"   Gusts: NA
Location:  65.99°N, 153.7°W
Report Text: PAIM 240655Z AUTO 00000KT 10SM OVC012 M06/M08 A2971 RMK AO2 SLP089 T10621077
Loading
Personal Weather Stations






























Interactive Weather Map
Tropical Storm Tracking
New forecast layout! Learn more

10-Day Weather Forecast

Advertisements
Track Severe Weather on mobile